Latest Weather Observations for Falls Creek

IDV60801

Issued at 12:05 pm EST Thursday 24 July 2014 (issued every 30 minutes, with the page automatically refreshed every 10 minutes)

About weather observations | Map of weather stations | Latest weather observations for VIC | Other Formats
Station Details ID: 083084 Name: FALLS CREEK Lat: -36.87 Lon: 147.28 Height: 1765.0 m
Data from the previous 72 hours. | See also: Recent months at Falls Creek
Date/Time
EST
Temp
°C
App
Temp
°C
Dew
Point
Rel
Hum
%
Delta-T
°C
Wind Press
QNH
hPa
Press
MSL
hPa
Rain
since 9 am
mm
Dir
 
Spd
km/h
Gust
km/h
Spd
kts
Gust
kts
24/12:00pm 0.2 -6.7 0.1 99 0.0 N 26 39 14 21 1016.7 1019.2 0.0
24/11:30am 0.8 -6.5 0.2 96 0.2 NNW 28 41 15 22 1017.1 - 0.0
24/11:00am 1.5 -6.5 0.2 91 0.5 N 32 44 17 24 1017.5 - 0.0
24/10:30am 1.5 -6.2 0.0 90 0.6 N 30 41 16 22 1017.8 - 0.0
24/10:00am 0.8 -5.3 0.1 95 0.3 N 22 32 12 17 1018.3 - 0.0
24/09:30am 0.8 -5.4 -0.5 91 0.5 N 22 32 12 17 1018.2 - 0.0
24/09:00am 0.8 -5.2 -1.9 82 1.1 N 20 28 11 15 1018.1 1020.7 0.0
24/08:30am 0.7 -6.1 -2.2 81 1.2 N 24 30 13 16 1017.8 - 0.0
24/08:00am 0.7 -7.6 -1.5 85 0.9 N 32 43 17 23 1017.7 - 0.0
24/07:30am 0.3 -7.1 -0.7 93 0.4 N 28 39 15 21 1017.6 - 0.0
24/07:00am 0.1 -8.1 -1.0 92 0.4 NNW 32 41 17 22 1017.7 - 0.0
24/06:30am -0.1 -8.5 -2.2 86 0.8 NNW 32 44 17 24 1017.6 - 0.0
24/06:00am 0.3 -7.7 -5.9 63 2.2 N 28 37 15 20 1017.3 1019.8 0.0
24/05:30am 0.5 -8.4 -12.8 36 3.9 N 30 39 16 21 1017.1 - 0.0
24/05:00am 0.8 -7.1 -14.0 32 4.3 N 24 35 13 19 1017.4 - 0.0
24/04:30am 0.3 -7.6 -14.1 33 4.1 N 24 32 13 17 1017.6 - 0.0
24/04:00am 0.7 -7.5 -13.7 33 4.2 N 26 35 14 19 1017.7 - 0.0
24/03:30am 0.8 -7.7 -12.5 36 4.0 N 28 33 15 18 1017.7 - 0.0
24/03:00am 0.5 -6.9 -12.8 36 3.9 N 22 30 12 16 1017.8 1020.5 0.0
24/02:30am 0.5 -6.5 -12.8 36 3.9 N 20 28 11 15 1018.1 - 0.0
24/02:00am 0.5 -6.5 -12.8 36 3.9 N 20 26 11 14 1018.2 - 0.0
24/01:30am 0.8 -7.0 -12.9 35 4.1 N 24 30 13 16 1018.2 - 0.0
24/01:00am 1.2 -6.7 -13.6 32 4.4 N 24 32 13 17 1018.3 - 0.0
24/12:30am 0.9 -6.2 -13.9 32 4.3 N 20 28 11 15 1018.7 - 0.0
24/12:00am 1.8 -6.5 -15.2 27 4.9 N 26 35 14 19 1019.0 1021.7 0.0
 
Date/Time
EST
Temp
°C
App
Temp
°C
Dew
Point
Rel
Hum
%
Delta-T
°C
Wind Press
QNH
hPa
Press
MSL
hPa
Rain
since 9 am
mm
Dir
 
Spd
km/h
Gust
km/h
Spd
kts
Gust
kts
23/11:30pm 1.0 -5.8 -12.0 37 4.0 N 19 26 10 14 1019.6 - 0.0
23/11:00pm 1.1 -5.3 -11.6 38 4.0 N 17 24 9 13 1020.1 - 0.0
23/10:30pm 1.1 -4.5 -10.4 42 3.7 N 13 17 7 9 1020.3 - 0.0
23/10:00pm 1.6 -5.3 -10.2 41 3.9 N 20 26 11 14 1020.6 - 0.0
23/09:30pm 1.5 -5.0 -8.3 48 3.4 NNW 19 22 10 12 1021.1 - 0.0
23/09:00pm 1.8 -4.8 -9.7 42 3.8 NNW 19 24 10 13 1020.9 1023.7 0.0
23/08:30pm 1.7 -5.0 -11.1 38 4.1 NNW 19 24 10 13 1020.8 - 0.0
23/08:00pm 1.8 -4.7 -12.7 33 4.5 N 17 20 9 11 1020.6 - 0.0
23/07:30pm 2.1 -4.3 -11.4 36 4.3 N 17 26 9 14 1020.5 - 0.0
23/07:00pm 2.2 -4.2 -11.6 35 4.4 N 17 20 9 11 1020.6 - 0.0
23/06:30pm 2.3 -4.0 -9.9 40 4.1 N 17 20 9 11 1020.5 - 0.0
23/06:00pm 2.4 -3.8 -8.9 43 3.9 N 17 22 9 12 1020.2 1023.0 0.0
23/05:30pm 2.2 -3.1 -6.9 51 3.3 N 13 17 7 9 1020.2 - 0.0
23/05:00pm 2.9 -2.4 -7.6 46 3.8 NNW 13 17 7 9 1020.3 - 0.0
23/04:30pm 3.9 -1.0 -7.2 44 4.1 N 11 15 6 8 1020.2 - 0.0
23/04:00pm 4.1 -0.5 -8.3 40 4.5 N 9 13 5 7 1020.2 - 0.0
23/03:30pm 4.2 -0.9 -8.8 38 4.7 N 11 15 6 8 1020.2 - 0.0
23/03:00pm 3.7 -1.1 -6.5 47 3.7 NNW 11 15 6 8 1020.5 1023.2 0.0
23/02:30pm 4.4 -0.5 -6.8 44 4.0 NNW 11 15 6 8 1020.5 - 0.0
23/02:00pm 5.0 0.2 -5.6 46 4.0 NNW 11 15 6 8 1020.6 - 0.0
23/01:30pm 4.9 0.4 -7.2 41 4.3 NNW 9 13 5 7 1020.8 - 0.0
23/01:00pm 5.0 0.9 -6.8 42 4.3 NNW 7 13 4 7 1021.2 - 0.0
23/12:30pm 5.3 0.8 -6.9 41 4.4 NNW 9 15 5 8 1021.7 - 0.0
23/12:00pm 5.4 1.0 -10.3 31 5.2 N 7 13 4 7 1022.1 1024.9 0.0
23/11:30am 5.7 0.7 -12.8 25 6.2 N 9 13 5 7 1022.6 - 0.0
23/11:00am 6.2 1.8 -13.9 22 6.6 NNE 6 11 3 6 1023.1 - 0.0
23/10:30am 5.2 0.4 -16.5 19 6.5 N 7 9 4 5 1023.3 - 0.0
23/10:00am 5.7 1.9 -16.1 19 6.7 W 2 6 1 3 1023.4 - 0.0
23/09:30am 4.5 0.8 -14.8 23 6.0 SSW 2 2 1 1 1023.4 - 0.0
23/09:00am 3.2 -1.5 -18.2 19 5.9 SSW 6 7 3 4 1023.4 1026.3 0.0
23/08:30am 3.1 -1.8 -21.0 15 6.2 SSW 7 9 4 5 1023.3 - 0.0
23/08:00am 1.6 -3.8 -23.0 14 5.8 SSW 9 11 5 6 1023.2 - 0.0
23/07:30am 2.0 -3.8 -23.5 13 6.0 SSW 11 13 6 7 1023.0 - 0.0
23/07:00am 2.0 -3.7 -21.1 16 5.7 SSW 11 15 6 8 1022.6 - 0.0
23/06:30am 0.9 -5.0 -17.3 24 4.8 SSW 13 15 7 8 1022.6 - 0.0
23/06:00am 2.2 -3.4 -17.8 21 5.4 SW 11 15 6 8 1022.4 1025.2 0.0
23/05:30am 2.2 -2.9 -16.2 24 5.2 WSW 9 11 5 6 1022.2 - 0.0
23/05:00am 1.3 -3.8 -14.7 29 4.6 W 9 9 5 5 1022.2 - 0.0
23/04:30am 1.4 -4.0 -13.5 32 4.4 W 11 15 6 8 1022.4 - 0.0
23/04:00am 1.2 -5.0 -14.0 31 4.4 SW 15 17 8 9 1022.4 - 0.0
23/03:30am 1.7 -4.2 -15.3 27 4.9 SW 13 17 7 9 1022.2 - 0.0
23/03:00am 1.5 -4.7 -15.0 28 4.7 SSW 15 17 8 9 1022.1 1024.9 0.0
23/02:30am 0.9 -4.9 -13.5 33 4.2 S 13 15 7 8 1022.2 - 0.0
23/02:00am 1.4 -4.3 -13.1 33 4.4 S 13 15 7 8 1022.4 - 0.0
23/01:30am 0.6 -4.6 -11.4 40 3.7 SSW 11 13 6 7 1022.6 - 0.0
23/01:00am 0.7 -4.5 -11.0 41 3.7 SSW 11 13 6 7 1022.8 - 0.0
23/12:30am 0.9 -4.4 -12.8 35 4.1 SSW 11 13 6 7 1023.0 - 0.0
23/12:00am 0.9 -4.2 -15.1 29 4.5 SSW 9 15 5 8 1023.2 1026.1 0.0
 
Date/Time
EST
Temp
°C
App
Temp
°C
Dew
Point
Rel
Hum
%
Delta-T
°C
Wind Press
QNH
hPa
Press
MSL
hPa
Rain
since 9 am
mm
Dir
 
Spd
km/h
Gust
km/h
Spd
kts
Gust
kts
22/11:30pm 0.8 -5.4 -14.8 30 4.4 S 15 19 8 10 1023.2 - 0.0
22/11:00pm 0.2 -6.1 -16.6 27 4.5 S 15 19 8 10 1023.2 - 0.0
22/10:30pm -0.3 -6.6 -16.6 28 4.3 S 15 15 8 8 1023.2 - 0.0
22/10:00pm -0.1 -7.1 -15.6 30 4.2 S 19 24 10 13 1023.1 - 0.0
22/09:30pm -0.2 -8.1 -14.1 34 3.9 S 24 28 13 15 1022.7 - 0.0
22/09:00pm -0.4 -8.6 -12.3 40 3.5 S 26 30 14 16 1022.6 1025.4 0.0
22/08:30pm -0.2 -9.0 -11.2 43 3.3 S 30 33 16 18 1022.2 - 0.0
22/08:00pm -0.2 -8.9 -9.9 48 3.1 S 30 33 16 18 1022.2 - 0.0
22/07:30pm -0.4 -8.3 -9.3 51 2.8 S 26 32 14 17 1022.4 - 0.0
22/07:00pm -1.5 -7.8 -5.7 73 1.4 S 19 20 10 11 1022.6 - 0.0
22/06:30pm -0.7 -6.4 -4.0 78 1.2 S 17 20 9 11 1022.6 - 0.0
22/06:00pm -0.3 -6.4 -3.7 78 1.2 SSE 19 22 10 12 1022.4 1025.2 0.0
22/05:30pm 0.0 -5.3 -3.5 77 1.3 SSE 15 17 8 9 1022.2 - 0.0
22/05:00pm 0.6 -5.4 -7.1 56 2.7 S 17 20 9 11 1022.4 - 0.0
22/04:30pm 1.1 -3.8 -7.1 54 2.9 S 11 15 6 8 1022.5 - 0.0
22/04:00pm 1.5 -4.2 -7.3 52 3.1 SSW 15 17 8 9 1022.5 - 0.0
22/03:30pm 1.9 -4.1 -6.9 52 3.2 SSW 17 22 9 12 1022.4 - 0.0
22/03:00pm 1.8 -4.2 -6.7 53 3.1 SSW 17 20 9 11 1022.2 1025.1 0.0
22/02:30pm 2.3 -4.1 -7.0 50 3.4 SW 19 22 10 12 1022.0 - 0.0
22/02:00pm 2.6 -3.9 -8.1 45 3.8 SSW 19 22 10 12 1022.0 - 0.0
22/01:30pm 3.2 -1.8 -8.1 43 4.1 WSW 11 15 6 8 1022.2 - 0.0
22/01:00pm 4.1 0.1 -7.6 42 4.3 W 6 7 3 4 1022.5 - 0.0
22/12:30pm 3.3 -0.9 -8.1 43 4.1 W 7 9 4 5 1022.8 - 0.0
22/12:00pm 2.2 -4.8 -12.0 34 4.5 SW 20 22 11 12 1023.0 1025.8 0.0
22/11:30am 2.0 -3.4 -13.7 30 4.7 SSW 11 15 6 8 1023.4 - 0.0
22/11:00am 2.1 -3.0 -16.3 24 5.2 SSW 9 13 5 7 1023.6 - 0.0
22/10:30am 1.3 -4.7 -18.6 21 5.2 SSW 13 15 7 8 1023.7 - 0.0
22/10:00am 0.0 -6.8 -19.1 22 4.7 SSW 17 19 9 10 1023.6 - 0.0
22/09:30am 0.3 -6.6 -22.5 16 5.2 SSW 17 20 9 11 1023.7 - 0.0
22/09:00am 2.2 -2.7 -27.3 9 6.3 SW 6 9 3 5 1023.4 1026.3 0.0
22/08:30am 2.8 -1.7 -24.7 11 6.4 WNW 4 6 2 3 1023.4 - 0.0
22/08:00am 1.1 -4.1 -29.4 8 6.0 SW 7 9 4 5 1023.1 - 0.0
22/07:30am 1.2 -3.9 -27.0 10 5.9 S 7 9 4 5 1022.8 - 0.0
22/07:00am 0.0 -6.2 -24.3 14 5.3 SSW 13 17 7 9 1022.4 - 0.0
22/06:30am 0.6 -5.6 -23.8 14 5.5 SSW 13 15 7 8 1022.1 - 0.0
22/06:00am 0.3 -5.8 -21.8 17 5.1 SSW 13 15 7 8 1021.8 1024.6 0.0
22/05:30am -0.1 -6.2 -20.3 20 4.9 SSW 13 17 7 9 1021.7 - 0.0
22/05:00am 0.0 -6.1 -20.2 20 4.9 S 13 15 7 8 1021.5 - 0.0
22/04:30am -0.2 -6.6 -19.8 21 4.8 S 15 17 8 9 1021.4 - 0.0
22/04:00am 0.0 -4.9 -19.1 22 4.7 S 7 11 4 6 1021.5 - 0.0
22/03:30am -0.4 -6.1 -19.5 22 4.6 SSW 11 13 6 7 1021.7 - 0.0
22/03:00am -0.8 -7.5 -17.0 28 4.1 S 17 19 9 10 1021.5 1024.3 0.0
22/02:30am -0.5 -6.8 -16.7 28 4.2 SSW 15 17 8 9 1021.9 - 0.0
22/02:00am -0.1 -5.7 -17.3 26 4.5 SW 11 15 6 8 1022.0 - 0.0
22/01:30am 0.3 -4.9 -17.4 25 4.6 WSW 9 15 5 8 1022.1 - 0.0
22/01:00am 0.1 -4.4 -11.0 43 3.4 W 7 9 4 5 1022.1 - 0.0
22/12:30am 1.1 -3.5 -17.7 23 5.0 WNW 6 9 3 5 1022.1 - 0.0
22/12:00am 1.3 -3.3 -17.0 24 4.9 WNW 6 9 3 5 1022.2 1025.1 0.0
 
Date/Time
EST
Temp
°C
App
Temp
°C
Dew
Point
Rel
Hum
%
Delta-T
°C
Wind Press
QNH
hPa
Press
MSL
hPa
Rain
since 9 am
mm
Dir
 
Spd
km/h
Gust
km/h
Spd
kts
Gust
kts
21/11:30pm 1.0 -4.2 -16.8 25 4.8 WNW 9 11 5 6 1022.2 - 0.0
21/11:00pm 0.9 -4.2 -16.4 26 4.7 WNW 9 11 5 6 1022.5 - 0.0
21/10:30pm 0.8 -3.9 -16.0 27 4.6 WNW 7 11 4 6 1022.6 - 0.0
21/10:00pm 1.0 -3.5 -15.4 28 4.6 NNW 6 9 3 5 1022.6 - 0.0
21/09:30pm 0.6 -3.9 -14.5 31 4.3 NW 6 9 3 5 1022.7 - 0.0
21/09:00pm 0.0 -4.4 -9.9 47 3.1 NNW 7 9 4 5 1022.8 1025.7 0.0
21/08:30pm -0.4 -4.0 -7.6 58 2.4 NW 4 7 2 4 1022.7 - 0.0
21/08:00pm -0.4 -3.6 -7.2 60 2.3 NNW 2 6 1 3 1022.6 - 0.0
21/07:30pm -1.0 -4.9 -4.3 78 1.1 SSE 7 11 4 6 1022.6 - 0.0
21/07:00pm -0.8 -4.6 -4.0 79 1.1 SSE 7 7 4 4 1022.5 - 0.0
21/06:30pm -0.8 -4.8 -5.2 72 1.5 S 7 11 4 6 1022.4 - 0.0
21/06:00pm -0.6 -5.1 -7.0 62 2.1 S 9 11 5 6 1022.2 1025.1 0.0
21/05:30pm -0.4 -4.4 -5.8 67 1.9 S 7 9 4 5 1022.0 - 0.0
21/05:00pm 0.2 -4.0 -8.0 54 2.7 SW 7 9 4 5 1022.0 - 0.0
21/04:30pm 0.3 -3.4 -3.2 77 1.3 W 7 13 4 7 1021.9 - 0.0
21/04:00pm 1.4 -2.1 -2.7 74 1.7 W 6 7 3 4 1022.0 - 0.0
21/03:30pm 1.9 -1.8 -2.6 72 1.7 NW 7 9 4 5 1021.9 - 0.0
21/03:00pm 2.1 -1.7 -3.8 65 2.3 NW 7 11 4 6 1021.7 1024.4 0.0
21/02:30pm 1.8 -2.4 -4.1 65 2.3 NW 9 13 5 7 1021.7 - 0.0
21/02:00pm 1.3 -3.1 -5.4 61 2.5 N 9 13 5 7 1021.8 - 0.0
21/01:30pm 2.7 -2.2 -3.2 65 2.3 WNW 13 17 7 9 1022.0 - 0.0
21/01:00pm 2.4 -2.6 -4.3 61 2.6 NW 13 19 7 10 1022.2 - 0.0
21/12:30pm 1.8 -3.3 -5.3 59 2.7 NNW 13 19 7 10 1022.5 - 0.0

Other Formats:

Comma delimited format used in spreadsheet applications
http://www.bom.gov.au/fwo/IDV60801/IDV60801.94903.axf

JavaScript Object Notation format (JSON) in row-major order
http://www.bom.gov.au/fwo/IDV60801/IDV60801.94903.json